createdAt,value
2022-11-15T00:01:39.942Z,96133.03
2022-11-15T00:04:18.380Z,96337.69
2022-11-15T00:06:45.507Z,95855.06
2022-11-15T00:09:15.603Z,96066.09
2022-11-15T00:11:52.825Z,96074.75
2022-11-15T00:14:19.609Z,96099.38
2022-11-15T00:16:46.751Z,96174.56
2022-11-15T00:19:13.595Z,96271.69
2022-11-15T00:21:40.482Z,96345.53
2022-11-15T00:24:07.574Z,96220.28
2022-11-15T00:26:34.907Z,96218.34
2022-11-15T00:29:02.043Z,96063.16
2022-11-15T00:31:28.846Z,96166.88
2022-11-15T00:33:55.729Z,96204.75
2022-11-15T00:36:22.600Z,96316.72
2022-11-15T00:38:49.337Z,96144.00
2022-11-15T00:41:16.361Z,96306.13
2022-11-15T00:43:43.398Z,96142.72
2022-11-15T00:46:10.949Z,96177.38
2022-11-15T00:48:38.517Z,96298.22
2022-11-15T00:51:05.433Z,96276.66
2022-11-15T00:53:32.495Z,96165.09
2022-11-15T00:55:59.783Z,96184.59
2022-11-15T00:58:26.807Z,96302.00
2022-11-15T01:00:53.741Z,96141.13
2022-11-15T01:03:20.737Z,96145.84
2022-11-15T01:05:47.680Z,96242.94
2022-11-15T01:08:16.359Z,96161.50
2022-11-15T01:10:43.619Z,96060.03
2022-11-15T01:13:10.720Z,96207.38
2022-11-15T01:15:41.198Z,96290.78
2022-11-15T01:18:08.843Z,96122.28
2022-11-15T01:20:35.782Z,96146.97
2022-11-15T01:23:02.692Z,96140.38
2022-11-15T01:25:29.809Z,96241.50
2022-11-15T01:27:56.670Z,96251.41
2022-11-15T01:30:23.447Z,96190.88
2022-11-15T01:32:50.688Z,96181.38
2022-11-15T01:35:17.759Z,96287.38
2022-11-15T01:37:44.611Z,96265.97
2022-11-15T01:40:12.093Z,96131.59
2022-11-15T01:42:39.482Z,96307.53
2022-11-15T01:45:07.500Z,96144.03
2022-11-15T01:47:41.942Z,96229.56
2022-11-15T01:50:15.789Z,96081.72
2022-11-15T01:52:46.970Z,96192.00
2022-11-15T01:55:27.131Z,96264.75
2022-11-15T01:57:59.465Z,96147.00
2022-11-15T02:00:26.649Z,96067.19
2022-11-15T02:02:53.434Z,96032.31
2022-11-15T02:05:20.813Z,96297.31
2022-11-15T02:07:49.164Z,96123.16
2022-11-15T02:10:22.283Z,96267.78
2022-11-15T02:12:50.476Z,96144.59
2022-11-15T02:15:17.687Z,96116.31
2022-11-15T02:17:47.366Z,96273.47
2022-11-15T02:20:54.771Z,96263.47
2022-11-15T02:23:36.603Z,96112.84
2022-11-15T02:26:30.096Z,95915.63
2022-11-15T02:29:15.534Z,96268.09
2022-11-15T02:31:50.127Z,96268.91
2022-11-15T02:35:06.691Z,95906.13
2022-11-15T02:37:51.685Z,96265.97
2022-11-15T02:40:34.111Z,96129.06
2022-11-15T02:46:05.540Z,96024.88
2022-11-15T02:48:33.676Z,96009.34
2022-11-15T02:51:02.353Z,96038.44
2022-11-15T02:53:32.384Z,96255.09
2022-11-15T02:56:05.090Z,96311.50
2022-11-15T02:58:56.322Z,96266.44
2022-11-15T03:01:31.814Z,96265.63
2022-11-15T03:04:34.048Z,96133.09
2022-11-15T03:07:08.795Z,96266.56
2022-11-15T03:09:49.892Z,96197.56
2022-11-15T03:12:32.992Z,96096.38
2022-11-15T03:15:07.369Z,96019.88
2022-11-15T03:17:40.170Z,96107.22
2022-11-15T03:20:09.070Z,96257.69
2022-11-15T03:22:39.460Z,96255.97
2022-11-15T03:25:12.172Z,96115.09
2022-11-15T03:27:45.076Z,96141.63
2022-11-15T03:30:13.403Z,96022.53
2022-11-15T03:32:46.082Z,96113.66
2022-11-15T03:35:23.332Z,96221.38
2022-11-15T03:37:52.503Z,96236.94
2022-11-15T03:40:24.759Z,96123.78
2022-11-15T03:43:09.642Z,96124.56
2022-11-15T03:45:48.059Z,96263.88
2022-11-15T03:48:20.282Z,96131.66
2022-11-15T03:50:48.592Z,96022.66
2022-11-15T03:53:15.803Z,96159.88
2022-11-15T03:55:42.595Z,96096.28
2022-11-15T03:58:09.564Z,96257.88
2022-11-15T04:00:36.836Z,96068.78
2022-11-15T04:03:04.009Z,96056.69
2022-11-15T04:05:30.884Z,96105.22
2022-11-15T04:07:57.931Z,96096.88
2022-11-15T04:10:24.858Z,96261.47
2022-11-15T04:12:51.596Z,96139.38
2022-11-15T04:15:21.198Z,96117.81
2022-11-15T04:17:50.344Z,96189.88
2022-11-15T04:20:20.771Z,96279.16
2022-11-15T04:22:48.165Z,96131.69
2022-11-15T04:25:17.438Z,96168.50
2022-11-15T04:27:46.282Z,96099.81
2022-11-15T04:30:13.397Z,96125.06
2022-11-15T04:32:40.183Z,96093.41
2022-11-15T04:35:07.452Z,96195.84
2022-11-15T04:37:34.744Z,96090.22
2022-11-15T04:40:01.602Z,96223.91
2022-11-15T04:42:28.287Z,96059.09
2022-11-15T04:44:55.402Z,96105.06
2022-11-15T04:47:22.213Z,96231.09
2022-11-15T04:49:48.969Z,96269.41
2022-11-15T04:52:16.142Z,96133.22
2022-11-15T04:54:42.916Z,96113.72
2022-11-15T04:57:09.689Z,96068.84
2022-11-15T04:59:37.119Z,96047.75
2022-11-15T05:02:04.069Z,96251.94
2022-11-15T05:04:30.844Z,96269.66
2022-11-15T05:06:57.949Z,96110.56
2022-11-15T05:09:24.694Z,96009.63
2022-11-15T05:11:51.631Z,96192.09
2022-11-15T05:14:18.778Z,96236.63
2022-11-15T05:16:45.692Z,96225.63
2022-11-15T05:19:21.690Z,96119.72
2022-11-15T05:21:49.556Z,95699.84
2022-11-15T05:24:16.533Z,95936.78
2022-11-15T05:26:48.614Z,96297.06
2022-11-15T05:29:15.690Z,96161.69
2022-11-15T05:31:42.592Z,95842.25
2022-11-15T05:34:09.605Z,96055.81
2022-11-15T05:36:43.038Z,96147.63
2022-11-15T05:39:09.923Z,95987.59
2022-11-15T05:41:43.173Z,96161.31
2022-11-15T05:44:12.798Z,96215.22
2022-11-15T05:46:41.162Z,96097.84
2022-11-15T05:49:12.803Z,96083.34
2022-11-15T05:51:41.001Z,96115.91
2022-11-15T05:54:08.001Z,96084.34
2022-11-15T05:56:35.476Z,96038.59
2022-11-15T05:59:03.461Z,96142.16
2022-11-15T06:01:31.392Z,96161.72
2022-11-15T06:04:01.521Z,96044.38
2022-11-15T06:06:33.749Z,95943.03
2022-11-15T06:09:00.934Z,95965.25
2022-11-15T06:11:28.363Z,95958.72
2022-11-15T06:13:58.233Z,95846.88
2022-11-15T06:16:33.939Z,96175.09
2022-11-15T06:19:04.152Z,96063.81
2022-11-15T06:21:33.801Z,95932.03
2022-11-15T06:24:04.574Z,95948.19
2022-11-15T06:26:36.945Z,96041.78
2022-11-15T06:29:07.080Z,96010.63
2022-11-15T06:31:39.566Z,96106.38
2022-11-15T06:34:08.566Z,95903.16
2022-11-15T06:36:36.963Z,96244.00
2022-11-15T06:39:07.000Z,96249.44
2022-11-15T06:41:39.776Z,95989.44
2022-11-15T06:44:08.962Z,96008.22
2022-11-15T06:46:37.482Z,96011.09
2022-11-15T06:49:15.090Z,96172.31
2022-11-15T06:51:44.922Z,96081.75
2022-11-15T06:54:12.248Z,96271.66
2022-11-15T06:56:48.163Z,96108.09
2022-11-15T06:59:15.238Z,96139.00
2022-11-15T07:01:42.783Z,96148.03
2022-11-15T07:04:14.371Z,96120.22
2022-11-15T07:06:57.932Z,95824.22
2022-11-15T07:09:37.321Z,96166.88
2022-11-15T07:12:18.917Z,96242.31
2022-11-15T07:14:56.922Z,95942.38
2022-11-15T07:17:24.530Z,95923.81
2022-11-15T07:22:41.031Z,95744.06
2022-11-15T07:25:08.815Z,95939.28
2022-11-15T07:27:48.699Z,95920.22
2022-11-15T07:30:19.333Z,95702.81
2022-11-15T07:33:00.645Z,96066.25
2022-11-15T07:35:32.858Z,95763.59
2022-11-15T07:38:09.850Z,95998.53
2022-11-15T07:40:43.137Z,96051.16
2022-11-15T07:43:22.638Z,96227.38
2022-11-15T07:46:11.152Z,96167.94
2022-11-15T07:48:44.404Z,95977.06
2022-11-15T07:51:16.877Z,95945.78
2022-11-15T07:54:02.511Z,96020.97
2022-11-15T07:56:37.324Z,95912.78
2022-11-15T07:59:17.582Z,95936.72
2022-11-15T08:02:04.573Z,96223.97
2022-11-15T08:05:38.663Z,95937.91
2022-11-15T08:07:56.133Z,95881.63
2022-11-15T08:11:02.854Z,96108.41
2022-11-15T08:14:25.396Z,96256.97
2022-11-15T08:17:32.225Z,96120.13
2022-11-15T08:20:09.325Z,96176.28
2022-11-15T08:23:09.722Z,96176.72
2022-11-15T08:26:18.554Z,95832.97
2022-11-15T08:32:19.075Z,95767.09
2022-11-15T08:35:01.249Z,95826.13
2022-11-15T08:37:37.086Z,95876.13
2022-11-15T08:40:25.128Z,95964.66
2022-11-15T08:42:52.822Z,95936.19
2022-11-15T08:45:23.839Z,96000.66
2022-11-15T08:48:21.246Z,96186.38
2022-11-15T08:51:11.772Z,95985.75
2022-11-15T08:53:46.903Z,95709.13
2022-11-15T08:59:03.657Z,95845.19
2022-11-15T09:01:31.331Z,96007.13
2022-11-15T09:03:58.579Z,96027.38
2022-11-15T09:06:29.972Z,95732.81
2022-11-15T09:12:16.168Z,95815.22
2022-11-15T09:14:49.120Z,95849.84
2022-11-15T09:17:24.438Z,95703.28
2022-11-15T09:19:52.494Z,95644.09
2022-11-15T09:22:49.161Z,96181.78
2022-11-15T09:25:25.000Z,95842.94
2022-11-15T09:28:22.576Z,95678.34
2022-11-15T09:32:04.316Z,96188.03
2022-11-15T09:34:28.336Z,95756.53
2022-11-15T09:37:03.440Z,95864.38
2022-11-15T09:39:39.720Z,95883.75
2022-11-15T09:42:46.939Z,96129.00
2022-11-15T09:51:59.760Z,96152.69
2022-11-15T09:57:54.791Z,95950.75
2022-11-15T10:07:57.894Z,96096.09
2022-11-15T11:02:11.801Z,96007.81
2022-11-15T11:08:38.454Z,96005.59
2022-11-15T11:14:55.739Z,95825.38
2022-11-15T11:21:13.491Z,95678.22
2022-11-15T11:24:17.686Z,95980.44
2022-11-15T11:27:16.695Z,95982.97
2022-11-15T11:31:39.155Z,95961.16
2022-11-15T11:34:03.584Z,95679.16
2022-11-15T11:36:55.844Z,95956.94
2022-11-15T11:40:10.257Z,95599.13
2022-11-15T11:55:24.585Z,95918.19
2022-11-15T11:58:18.601Z,95909.25
2022-11-15T12:01:17.856Z,95918.59
2022-11-15T12:18:12.091Z,95910.84
2022-11-15T12:27:45.644Z,95675.56
2022-11-15T12:30:35.082Z,95483.22
2022-11-15T12:33:07.407Z,95476.56
2022-11-15T12:35:54.530Z,95582.25
2022-11-15T12:39:11.174Z,95850.88
2022-11-15T12:41:44.521Z,95744.63
2022-11-15T12:44:51.681Z,95616.19
2022-11-15T12:48:07.115Z,95746.31
2022-11-15T12:50:58.120Z,95845.69
2022-11-15T12:53:43.038Z,95351.25
2022-11-15T12:56:25.228Z,95833.78
2022-11-15T13:01:57.653Z,95835.03
2022-11-15T13:04:42.691Z,95451.72
2022-11-15T13:07:42.439Z,95541.00
2022-11-15T13:10:57.766Z,95807.91
2022-11-15T13:14:03.803Z,95436.31
2022-11-15T13:16:34.503Z,95561.25
2022-11-15T13:19:14.972Z,95551.50
2022-11-15T13:25:06.141Z,95709.25
2022-11-15T13:28:28.043Z,95382.72
2022-11-15T13:30:59.087Z,95791.63
2022-11-15T13:33:41.609Z,95583.84
2022-11-15T13:36:28.770Z,95347.78
2022-11-15T13:39:36.407Z,95732.28
2022-11-15T13:42:34.284Z,95794.56
2022-11-15T13:45:17.897Z,95820.91
2022-11-15T13:47:47.374Z,95422.00
2022-11-15T13:50:44.438Z,95716.13
2022-11-15T13:53:31.483Z,95790.66
2022-11-15T13:56:31.820Z,95401.00
2022-11-15T14:02:22.927Z,95535.56
2022-11-15T14:05:17.641Z,95566.72
2022-11-15T14:08:37.988Z,95760.22
2022-11-15T14:14:28.845Z,95686.84
2022-11-15T14:17:02.135Z,95459.50
2022-11-15T14:19:35.561Z,95771.25
2022-11-15T14:22:21.721Z,95790.94
2022-11-15T14:25:21.120Z,95508.16
2022-11-15T14:28:29.114Z,95772.53
2022-11-15T14:31:28.278Z,95568.03
2022-11-15T14:34:00.917Z,95536.97
2022-11-15T14:36:39.019Z,95578.72
2022-11-15T14:39:36.134Z,95396.34
2022-11-15T14:42:10.959Z,95542.75
2022-11-15T14:45:19.067Z,95338.28
2022-11-15T14:48:03.538Z,95783.84
2022-11-15T14:53:47.087Z,95768.59
2022-11-15T14:56:21.802Z,95766.69
2022-11-15T14:58:51.364Z,95570.06
2022-11-15T15:01:33.165Z,95273.94
2022-11-15T15:04:00.528Z,95731.56
2022-11-15T15:06:29.953Z,95767.66
2022-11-15T15:09:02.255Z,95481.75
2022-11-15T15:11:41.083Z,95748.91
2022-11-15T15:14:13.941Z,95676.63
2022-11-15T15:16:46.732Z,95671.47
2022-11-15T15:19:44.838Z,95751.88
2022-11-15T15:25:48.491Z,95746.91
2022-11-15T15:28:32.968Z,95748.28
2022-11-15T15:31:08.087Z,95749.38
2022-11-15T15:33:39.704Z,95740.69
2022-11-15T15:36:21.247Z,95651.94
2022-11-15T15:38:57.362Z,95749.03
2022-11-15T15:42:45.930Z,95617.31
2022-11-15T15:47:15.978Z,95533.72
2022-11-15T15:49:56.471Z,95372.97
2022-11-15T15:52:54.077Z,95411.16
2022-11-15T15:55:36.202Z,95279.53
2022-11-15T15:58:12.843Z,95262.88
2022-11-15T16:00:49.109Z,95402.03
2022-11-15T16:03:21.243Z,95389.78
2022-11-15T16:05:55.842Z,95302.63
2022-11-15T16:09:00.381Z,95531.69
2022-11-15T16:11:42.806Z,95651.44
2022-11-15T16:18:12.093Z,95258.59
2022-11-15T16:20:54.697Z,95766.16
2022-11-15T16:23:46.496Z,95456.03
2022-11-15T16:29:31.520Z,95522.03
2022-11-15T16:32:18.132Z,95444.25
2022-11-15T16:37:50.519Z,95659.28
2022-11-15T16:40:37.757Z,95576.06
2022-11-15T16:46:16.613Z,95756.59
2022-11-15T16:55:02.490Z,95729.22
2022-11-15T16:57:30.488Z,95451.78
2022-11-15T16:59:59.719Z,95500.69
2022-11-15T17:03:09.794Z,95733.22
2022-11-15T17:06:09.687Z,95771.38
2022-11-15T17:09:05.596Z,95604.47
2022-11-15T17:12:00.198Z,95253.72
2022-11-15T17:14:29.060Z,95742.66
2022-11-15T17:17:17.104Z,95460.50
2022-11-15T17:23:16.945Z,95729.41
2022-11-15T17:26:24.117Z,95730.59
2022-11-15T17:32:05.672Z,95613.81
2022-11-15T17:34:56.016Z,95665.31
2022-11-15T17:37:30.043Z,95295.22
2022-11-15T17:40:19.550Z,95301.41
2022-11-15T17:43:19.600Z,95410.53
2022-11-15T17:45:49.559Z,95638.63
2022-11-15T17:48:24.206Z,95194.78
2022-11-15T17:51:12.359Z,95692.41
2022-11-15T17:53:59.603Z,95526.94
2022-11-15T17:56:36.967Z,95500.41
2022-11-15T17:59:07.753Z,95186.16
2022-11-15T18:01:40.896Z,95523.97
2022-11-15T18:04:40.324Z,95526.16
2022-11-15T18:07:40.856Z,95304.25
2022-11-15T18:10:18.087Z,95361.81
2022-11-15T18:12:54.918Z,95421.63
2022-11-15T18:15:22.358Z,95411.75
2022-11-15T18:18:00.994Z,95614.88
2022-11-15T18:20:42.642Z,95499.38
2022-11-15T18:23:09.615Z,95589.50
2022-11-15T18:25:39.606Z,95592.91
2022-11-15T18:28:18.165Z,95158.66
2022-11-15T18:30:53.656Z,95431.88
2022-11-15T18:33:36.951Z,95694.09
2022-11-15T18:36:16.337Z,95577.84
2022-11-15T18:38:49.548Z,95301.94
2022-11-15T18:41:20.613Z,95314.34
2022-11-15T18:43:53.972Z,95667.53
2022-11-15T18:46:27.886Z,95684.06
2022-11-15T18:48:58.199Z,95263.50
2022-11-15T18:51:38.925Z,95354.47
2022-11-15T18:54:18.480Z,95400.25
2022-11-15T18:57:08.157Z,95486.81
2022-11-15T18:59:40.659Z,95407.63
2022-11-15T19:02:28.284Z,95614.66
2022-11-15T19:05:44.043Z,95697.97
2022-11-15T19:08:02.240Z,95674.38
2022-11-15T19:11:04.573Z,95581.03
2022-11-15T19:13:34.987Z,95707.19
2022-11-15T19:16:08.453Z,95535.59
2022-11-15T19:21:48.848Z,95215.19
2022-11-15T19:24:32.173Z,95314.09
2022-11-15T19:27:22.767Z,95591.91
2022-11-15T19:30:01.965Z,95659.69
2022-11-15T19:32:44.807Z,95600.28
2022-11-15T19:35:28.689Z,95411.72
2022-11-15T19:38:16.337Z,95520.94
2022-11-15T19:43:56.248Z,95555.78
2022-11-15T19:46:25.641Z,95209.50
2022-11-15T19:48:58.251Z,95629.06
2022-11-15T19:52:02.583Z,95210.66
2022-11-15T19:54:42.652Z,95334.41
2022-11-15T19:57:59.653Z,95349.53
2022-11-15T20:00:20.522Z,95442.22
2022-11-15T20:02:56.301Z,95683.09
2022-11-15T20:05:30.262Z,95520.94
2022-11-15T20:08:04.733Z,95571.66
2022-11-15T20:10:42.448Z,95463.06
2022-11-15T20:13:59.597Z,95676.75
2022-11-15T20:17:00.373Z,95304.16
2022-11-15T20:19:47.211Z,95720.81
2022-11-15T20:25:43.397Z,95730.31
2022-11-15T20:28:24.984Z,95630.06
2022-11-15T20:31:11.691Z,95691.66
2022-11-15T20:33:39.117Z,95196.59
2022-11-15T20:36:22.377Z,95674.53
2022-11-15T20:39:03.475Z,95656.13
2022-11-15T20:41:30.594Z,95564.81
2022-11-15T20:44:01.275Z,95377.13
2022-11-15T20:46:41.232Z,95658.75
2022-11-15T20:49:37.611Z,95646.88
2022-11-15T20:55:07.533Z,95664.97
2022-11-15T21:03:43.193Z,95551.84
2022-11-15T21:06:10.871Z,95325.16
2022-11-15T21:08:37.740Z,95612.97
2022-11-15T21:11:05.219Z,95654.44
2022-11-15T21:13:32.251Z,95519.88
2022-11-15T21:15:59.247Z,95318.28
2022-11-15T21:18:26.835Z,95466.47
2022-11-15T21:21:01.887Z,95596.66
2022-11-15T21:23:29.376Z,95112.59
2022-11-15T21:25:56.761Z,95455.56
2022-11-15T21:28:24.377Z,95441.56
2022-11-15T21:31:01.137Z,95348.31
2022-11-15T21:33:28.704Z,95096.78
2022-11-15T21:36:04.583Z,95351.28
2022-11-15T21:38:32.348Z,95402.56
2022-11-15T21:41:17.659Z,95386.81
2022-11-15T21:43:57.959Z,95557.63
2022-11-15T21:46:31.558Z,95641.13
2022-11-15T21:49:01.858Z,95367.03
2022-11-15T21:51:35.768Z,95114.50
2022-11-15T21:54:07.320Z,95436.53
2022-11-15T21:56:37.223Z,95393.28
2022-11-15T22:01:51.404Z,95448.78
2022-11-15T22:04:19.131Z,95580.09
2022-11-15T22:06:53.561Z,95264.09
2022-11-15T22:09:21.597Z,95313.00
2022-11-15T22:11:51.051Z,95095.34
2022-11-15T22:14:22.935Z,95374.19
2022-11-15T22:16:53.094Z,95208.78
2022-11-15T22:22:04.558Z,95334.69
2022-11-15T22:24:39.582Z,95436.69
2022-11-15T22:29:56.366Z,94984.72
2022-11-15T22:33:04.559Z,95070.66
2022-11-15T22:35:50.060Z,95623.56
2022-11-15T22:38:20.895Z,95234.19
2022-11-15T22:40:56.104Z,95492.16
2022-11-15T22:43:37.893Z,95301.03
2022-11-15T22:46:12.858Z,95200.91
2022-11-15T22:51:29.448Z,95235.53
2022-11-15T22:54:04.000Z,95364.41
2022-11-15T22:56:31.126Z,95201.25
2022-11-15T22:59:01.001Z,95415.69
2022-11-15T23:01:30.249Z,95145.72
2022-11-15T23:04:00.779Z,95048.13
2022-11-15T23:06:31.377Z,95562.19
2022-11-15T23:09:00.749Z,95588.25
2022-11-15T23:11:28.123Z,95282.00
2022-11-15T23:13:55.656Z,95075.25
2022-11-15T23:16:22.922Z,95273.66
2022-11-15T23:18:58.349Z,95201.38
2022-11-15T23:21:34.513Z,95060.38
2022-11-15T23:24:03.972Z,95467.53
2022-11-15T23:29:19.896Z,95199.50
2022-11-15T23:32:01.546Z,95398.56
2022-11-15T23:34:45.046Z,95246.00
2022-11-15T23:37:16.007Z,95268.31
2022-11-15T23:39:46.021Z,95522.53
2022-11-15T23:45:09.677Z,95527.09
2022-11-15T23:47:47.998Z,95215.13
2022-11-15T23:50:18.929Z,95001.28
2022-11-15T23:52:49.330Z,95585.13
2022-11-15T23:55:16.959Z,95327.00
2022-11-15T23:57:48.463Z,95472.56
